Time;durP1;ratioP1;P1;durP2;ratioP2;P2;SDS_P1;SDS_P2;PMS_P1;PMS_P2;Temp;Humidity;BMP_temperature;BMP_pressure;BME280_temperature;BME280_humidity;BME280_pressure;Samples;Min_cycle;Max_cycle;Signal;HPM_P1;HPM_P2
2021/04/15 00:02:20;;;;;;;0.75;0.45;;;;;;;17.54;49.34;103270.88;6339784;22;20007;-77
2021/04/15 00:04:45;;;;;;;0.90;0.50;;;;;;;17.52;49.48;103269.97;6292554;22;20090;-76
2021/04/15 00:07:11;;;;;;;0.57;0.40;;;;;;;17.53;49.24;103271.72;6329943;22;19991;-77
2021/04/15 00:09:36;;;;;;;0.95;0.40;;;;;;;17.53;49.11;103266.50;6363701;22;20006;-77
2021/04/15 00:12:01;;;;;;;0.70;0.40;;;;;;;17.53;49.33;103275.22;6347089;22;20426;-77
2021/04/15 00:14:27;;;;;;;0.75;0.45;;;;;;;17.52;49.22;103265.63;6290867;22;20517;-78
2021/04/15 00:16:52;;;;;;;0.77;0.30;;;;;;;17.50;49.29;103259.50;6341809;22;20003;-77
2021/04/15 00:19:19;;;;;;;1.38;0.50;;;;;;;17.49;49.33;103265.56;6314903;22;20446;-77
2021/04/15 00:21:48;;;;;;;1.02;0.43;;;;;;;17.49;49.40;103265.56;6343779;22;20017;-77
2021/04/15 00:24:15;;;;;;;0.90;0.50;;;;;;;17.46;49.31;103262.84;6343505;22;19995;-77
2021/04/15 00:26:40;;;;;;;0.45;0.30;;;;;;;17.48;49.17;103259.47;6345698;22;20446;-77
2021/04/15 00:29:06;;;;;;;1.00;0.43;;;;;;;17.47;49.22;103257.69;6338342;22;20034;-77
2021/04/15 00:31:31;;;;;;;0.60;0.30;;;;;;;17.48;49.47;103254.25;6366635;22;20018;-77
2021/04/15 00:33:57;;;;;;;0.65;0.40;;;;;;;17.47;49.33;103252.47;6339849;22;20014;-77
2021/04/15 00:36:25;;;;;;;0.40;0.25;;;;;;;17.46;49.35;103249.81;6289387;22;20007;-77
2021/04/15 00:38:51;;;;;;;0.73;0.50;;;;;;;17.46;49.08;103248.13;6368618;22;20007;-77
2021/04/15 00:41:17;;;;;;;0.77;0.50;;;;;;;17.46;49.28;103248.13;6340964;22;20011;-77
2021/04/15 00:43:45;;;;;;;0.52;0.40;;;;;;;17.47;49.11;103244.66;6367088;22;20387;-77
2021/04/15 00:46:49;;;;;;;0.22;0.22;;;;;;;17.46;49.30;103236.81;6340810;22;20009;-77
2021/04/15 00:49:21;;;;;;;0.50;0.40;;;;;;;17.45;49.09;103238.53;6365358;22;20022;-77
2021/04/15 00:51:51;;;;;;;0.43;0.35;;;;;;;17.44;49.13;103235.88;6342114;22;20022;-77
2021/04/15 00:54:47;;;;;;;0.88;0.40;;;;;;;17.44;49.15;103234.19;6345938;22;19999;-77
2021/04/15 00:57:26;;;;;;;0.70;0.30;;;;;;;17.44;49.09;103235.88;6345016;22;20800;-77
2021/04/15 00:59:52;;;;;;;0.57;0.30;;;;;;;17.43;49.24;103228.94;6345297;22;20013;-77
2021/04/15 01:02:21;;;;;;;0.63;0.40;;;;;;;17.42;49.11;103224.53;6344499;22;20022;-78
2021/04/15 01:04:49;;;;;;;0.52;0.35;;;;;;;17.43;49.04;103218.50;6344668;22;20025;-77
2021/04/15 01:07:15;;;;;;;0.38;0.30;;;;;;;17.42;49.11;103228.06;6347265;22;20007;-77
2021/04/15 01:09:40;;;;;;;0.70;0.40;;;;;;;17.40;49.14;103228.84;6345263;22;20366;-76
2021/04/15 01:12:24;;;;;;;0.40;0.30;;;;;;;17.41;49.09;103226.25;6341745;22;20018;-77
2021/04/15 01:15:14;;;;;;;0.90;0.47;;;;;;;17.42;49.16;103222.84;6344828;22;20003;-77
2021/04/15 01:18:29;;;;;;;0.52;0.30;;;;;;;17.40;49.24;103216.72;6344967;22;20018;-77
2021/04/15 01:21:10;;;;;;;0.40;0.30;;;;;;;17.42;49.30;103216.72;6257629;22;20134;-77
2021/04/15 01:23:45;;;;;;;0.52;0.30;;;;;;;17.41;49.24;103214.97;6373744;22;20022;-76
2021/04/15 01:26:29;;;;;;;0.75;0.40;;;;;;;17.40;49.17;103211.50;6346794;22;20448;-77
2021/04/15 01:29:18;;;;;;;0.68;0.50;;;;;;;17.41;49.05;103212.38;6369838;22;20102;-77
2021/04/15 01:31:54;;;;;;;0.60;0.40;;;;;;;17.39;49.17;103211.44;6343519;22;20011;-77
2021/04/15 01:34:31;;;;;;;0.77;0.40;;;;;;;17.37;49.22;103203.59;6341324;22;20057;-77
2021/04/15 01:37:22;;;;;;;0.60;0.40;;;;;;;17.38;49.33;103225.31;6345213;22;20022;-77
2021/04/15 01:39:55;;;;;;;1.35;0.47;;;;;;;17.39;48.98;103229.66;6362764;22;20018;-76
2021/04/15 01:42:29;;;;;;;0.90;0.35;;;;;;;17.38;48.99;103227.91;6341642;22;20041;-77
2021/04/15 01:45:02;;;;;;;0.90;0.50;;;;;;;17.39;49.06;103227.94;6342326;22;20002;-77
2021/04/15 01:47:32;;;;;;;0.60;0.30;;;;;;;17.35;49.08;103220.00;6340873;22;20003;-77
2021/04/15 01:50:08;;;;;;;0.93;0.43;;;;;;;17.38;49.19;103220.97;6338160;22;20022;-77
2021/04/15 01:52:37;;;;;;;1.13;0.40;;;;;;;17.38;49.11;103220.09;6339160;22;20006;-77
2021/04/15 01:55:29;;;;;;;1.10;0.40;;;;;;;17.36;49.06;103222.66;6339277;22;20006;-77
2021/04/15 01:58:17;;;;;;;1.02;0.45;;;;;;;17.38;49.12;103217.50;6337898;22;20018;-77
2021/04/15 02:00:46;;;;;;;0.40;0.30;;;;;;;17.35;48.69;103215.66;6338664;22;19999;-77
2021/04/15 02:03:18;;;;;;;1.27;0.30;;;;;;;17.33;49.13;103209.53;6337763;22;20010;-77
2021/04/15 02:05:46;;;;;;;0.68;0.40;;;;;;;17.35;49.28;103201.78;6341181;22;20002;-77
2021/04/15 02:08:16;;;;;;;1.00;0.38;;;;;;;17.35;49.09;103210.47;6341209;22;20002;-77
2021/04/15 02:11:06;;;;;;;0.98;0.40;;;;;;;17.35;49.17;103205.25;6340941;22;20052;-77
2021/04/15 02:13:34;;;;;;;0.82;0.52;;;;;;;17.35;49.08;103197.44;6342505;22;20041;-76
2021/04/15 02:16:05;;;;;;;0.68;0.38;;;;;;;17.32;49.09;103199.97;6345139;22;20074;-77
2021/04/15 02:18:45;;;;;;;1.15;0.40;;;;;;;17.32;49.01;103201.72;6342348;22;20029;-76
2021/04/15 02:21:38;;;;;;;0.70;0.40;;;;;;;17.33;49.16;103199.13;6344220;22;19999;-77
2021/04/15 02:24:25;;;;;;;0.65;0.30;;;;;;;17.33;49.22;103200.84;6366821;22;19995;-77
2021/04/15 02:26:56;;;;;;;0.45;0.30;;;;;;;17.32;49.07;103201.72;6345708;22;20007;-77
2021/04/15 02:29:24;;;;;;;0.38;0.38;;;;;;;17.33;49.07;103203.47;6360744;22;20009;-77
2021/04/15 02:31:59;;;;;;;0.75;0.38;;;;;;;17.33;49.32;103201.72;6352952;22;20003;-76
2021/04/15 02:34:40;;;;;;;1.35;0.57;;;;;;;17.31;49.00;103193.03;6351353;22;19999;-77
2021/04/15 02:37:23;;;;;;;0.82;0.30;;;;;;;17.32;49.09;103189.56;6353242;22;20026;-77
2021/04/15 02:39:55;;;;;;;0.55;0.32;;;;;;;17.32;49.01;103196.50;6345899;22;19995;-77
2021/04/15 02:42:28;;;;;;;0.52;0.40;;;;;;;17.30;49.06;103188.63;6341749;22;20003;-76
2021/04/15 02:45:00;;;;;;;0.65;0.40;;;;;;;17.30;49.12;103187.75;6343449;22;19995;-77
2021/04/15 02:48:18;;;;;;;0.35;0.30;;;;;;;17.28;49.04;103188.59;6341117;22;20049;-77
2021/04/15 02:50:44;;;;;;;1.20;0.35;;;;;;;17.30;49.06;103187.75;6306049;22;20338;-77
2021/04/15 02:53:24;;;;;;;0.40;0.32;;;;;;;17.31;49.17;103181.72;6341658;22;20018;-77
2021/04/15 02:55:54;;;;;;;1.08;0.40;;;;;;;17.30;49.10;103191.25;6342263;22;20006;-77
2021/04/15 02:58:28;;;;;;;0.52;0.32;;;;;;;17.32;49.09;103178.28;6341490;22;20375;-76
2021/04/15 03:00:55;;;;;;;0.30;0.30;;;;;;;17.28;48.96;103190.31;6342232;22;20003;-77
2021/04/15 03:03:28;;;;;;;0.88;0.40;;;;;;;17.29;49.21;103189.50;6367627;22;20013;-76
2021/04/15 03:06:00;;;;;;;0.87;0.53;;;;;;;17.28;49.07;103190.31;6342492;22;20438;-77
2021/04/15 03:08:26;;;;;;;0.98;0.40;;;;;;;17.27;48.95;103192.03;6342047;22;20389;-77
2021/04/15 03:11:06;;;;;;;0.75;0.40;;;;;;;17.27;48.99;103188.56;6342517;22;19999;-77
2021/04/15 03:13:41;;;;;;;0.50;0.38;;;;;;;17.27;49.18;103188.56;6343557;22;19999;-77
2021/04/15 03:16:06;;;;;;;0.60;0.40;;;;;;;17.26;49.12;103174.66;6350064;22;20003;-77
2021/04/15 03:18:42;;;;;;;0.68;0.40;;;;;;;17.26;49.07;103178.97;6354246;22;20005;-77
2021/04/15 03:21:29;;;;;;;0.90;0.40;;;;;;;17.24;49.09;103178.91;6347578;22;20053;-77
2021/04/15 03:23:57;;;;;;;0.50;0.45;;;;;;;17.26;49.05;103178.97;6344958;22;20310;-76
2021/04/15 03:26:51;;;;;;;1.02;0.38;;;;;;;17.26;48.99;103177.25;6342846;22;20005;-77
2021/04/15 03:29:26;;;;;;;0.63;0.30;;;;;;;17.26;49.01;103177.25;6343837;22;20422;-77
2021/04/15 03:32:09;;;;;;;0.60;0.40;;;;;;;17.25;49.21;103183.31;6342857;22;20010;-76
2021/04/15 03:34:40;;;;;;;0.75;0.40;;;;;;;17.26;49.33;103173.78;6344872;22;20006;-77
2021/04/15 03:37:10;;;;;;;0.68;0.30;;;;;;;17.28;49.15;103179.91;6372519;22;20422;-77
2021/04/15 03:39:36;;;;;;;0.40;0.30;;;;;;;17.27;49.29;103178.16;6344788;22;20013;-77
2021/04/15 03:42:10;;;;;;;0.77;0.30;;;;;;;17.25;49.16;103179.84;6318037;22;20030;-77
2021/04/15 03:44:46;;;;;;;1.10;0.43;;;;;;;17.27;49.34;103175.56;6343899;22;20053;-78
2021/04/15 03:47:16;;;;;;;0.45;0.30;;;;;;;17.25;49.33;103175.50;6338426;22;20003;-77
2021/04/15 03:49:57;;;;;;;0.50;0.30;;;;;;;17.24;49.16;103173.72;6348590;22;20007;-77
2021/04/15 03:52:26;;;;;;;0.47;0.30;;;;;;;17.25;49.36;103183.31;6345543;22;20007;-77
2021/04/15 03:55:15;;;;;;;0.70;0.30;;;;;;;17.24;49.45;103178.91;6347275;22;20029;-77
2021/04/15 03:57:42;;;;;;;0.30;0.30;;;;;;;17.25;49.24;103185.03;6348999;22;20075;-77
2021/04/15 04:00:26;;;;;;;0.95;0.40;;;;;;;17.25;49.23;103183.31;6351952;22;20041;-77
2021/04/15 04:03:20;;;;;;;0.40;0.30;;;;;;;17.26;49.32;103181.56;6347846;22;20014;-77
2021/04/15 04:05:50;;;;;;;0.30;0.30;;;;;;;17.26;49.44;103179.84;6344820;22;20018;-77
2021/04/15 04:08:20;;;;;;;0.63;0.30;;;;;;;17.25;49.16;103185.91;6343042;22;20007;-76
2021/04/15 04:10:47;;;;;;;0.60;0.30;;;;;;;17.26;49.31;103184.19;6371001;22;20034;-77
2021/04/15 04:13:34;;;;;;;0.30;0.30;;;;;;;17.23;49.34;103187.59;6344371;22;20007;-77
2021/04/15 04:16:03;;;;;;;0.50;0.30;;;;;;;17.21;49.52;103189.25;6347385;22;20009;-77
2021/04/15 04:18:46;;;;;;;0.82;0.30;;;;;;;17.20;49.55;103187.50;6345655;22;20003;-77
2021/04/15 04:21:21;;;;;;;0.30;0.20;;;;;;;17.22;49.49;103195.34;6344867;22;20007;-77
2021/04/15 04:24:09;;;;;;;0.45;0.25;;;;;;;17.22;49.19;103191.03;6348098;22;20006;-77
2021/04/15 04:26:43;;;;;;;0.77;0.40;;;;;;;17.23;49.40;103194.50;6345739;22;20021;-77
2021/04/15 04:29:27;;;;;;;0.57;0.40;;;;;;;17.22;49.32;103191.03;6342407;22;20323;-77
2021/04/15 04:31:57;;;;;;;0.70;0.40;;;;;;;17.22;49.31;103196.25;6351882;22;20014;-77
2021/04/15 04:34:24;;;;;;;0.40;0.28;;;;;;;17.24;49.37;103193.66;6381245;22;20029;-77
2021/04/15 04:36:52;;;;;;;0.77;0.40;;;;;;;17.22;49.29;103192.72;6357812;22;19999;-77
2021/04/15 04:39:20;;;;;;;0.70;0.40;;;;;;;17.21;49.20;103194.47;6356464;22;19994;-77
2021/04/15 04:42:03;;;;;;;0.30;0.30;;;;;;;17.24;49.17;103197.13;6333435;22;20384;-77
2021/04/15 04:44:37;;;;;;;0.40;0.30;;;;;;;17.26;49.31;103197.19;6377675;22;20052;-78
2021/04/15 04:47:12;;;;;;;0.38;0.20;;;;;;;17.26;49.28;103197.19;6353516;22;20048;-77
2021/04/15 04:49:44;;;;;;;0.40;0.25;;;;;;;17.26;49.27;103205.88;6353576;22;20009;-77
2021/04/15 04:52:15;;;;;;;1.35;0.40;;;;;;;17.27;49.29;103199.84;6327902;22;20040;-77
2021/04/15 04:54:43;;;;;;;0.63;0.40;;;;;;;17.27;49.12;103206.78;6356635;22;19995;-77
2021/04/15 04:59:48;;;;;;;0.40;0.30;;;;;;;17.26;49.11;103202.41;6326479;22;20015;-77
2021/04/15 05:02:16;;;;;;;0.70;0.30;;;;;;;17.25;49.12;103203.25;6328498;22;20007;-76
2021/04/15 05:04:43;;;;;;;0.43;0.35;;;;;;;17.28;49.39;103203.31;6328124;22;20004;-76
2021/04/15 05:07:26;;;;;;;0.98;0.30;;;;;;;17.32;49.39;103204.31;6329414;22;20067;-77
2021/04/15 05:09:52;;;;;;;2.35;0.40;;;;;;;17.37;49.20;103208.78;6334349;22;20007;-77
2021/04/15 05:12:23;;;;;;;2.20;0.40;;;;;;;17.42;49.14;103215.03;6297768;22;20007;-77
2021/04/15 05:14:52;;;;;;;1.13;0.55;;;;;;;17.43;49.16;103214.19;6328887;22;20015;-76
2021/04/15 05:17:31;;;;;;;3.95;1.10;;;;;;;17.53;49.37;103207.53;6328246;22;20003;-78
2021/04/15 05:22:32;;;;;;;5.05;1.65;;;;;;;17.82;49.79;103215.31;6355501;22;20045;-77
2021/04/15 05:25:06;;;;;;;5.78;1.60;;;;;;;17.84;49.62;103216.22;6348010;22;20062;-77
2021/04/15 05:27:35;;;;;;;9.57;1.33;;;;;;;17.86;49.60;103215.44;6325131;22;20011;-77
2021/04/15 05:30:33;;;;;;;6.53;1.40;;;;;;;17.90;49.64;103219.00;6345673;22;20049;-77
2021/04/15 05:33:01;;;;;;;5.30;1.50;;;;;;;17.92;49.34;103221.63;6301471;22;20035;-78
2021/04/15 05:35:33;;;;;;;6.65;1.48;;;;;;;17.93;49.71;103215.59;6296964;22;19996;-77
2021/04/15 05:38:00;;;;;;;5.50;1.27;;;;;;;17.96;49.41;103219.13;6298584;22;20023;-77
2021/04/15 05:40:33;;;;;;;4.35;1.35;;;;;;;18.00;49.44;103225.31;6297446;22;20071;-77
2021/04/15 05:43:36;;;;;;;4.70;1.40;;;;;;;17.99;49.28;103229.66;6298520;22;20023;-76
2021/04/15 05:46:09;;;;;;;3.97;1.10;;;;;;;17.98;49.58;103227.88;6296362;22;20008;-77
2021/04/15 05:48:36;;;;;;;2.67;1.10;;;;;;;17.96;49.21;103228.69;6314476;22;20345;-77
2021/04/15 05:51:09;;;;;;;2.70;1.23;;;;;;;17.98;49.43;103229.63;6381259;22;20043;-77
2021/04/15 05:53:43;;;;;;;4.25;1.23;;;;;;;17.97;49.35;103227.88;6340817;22;20041;-76
2021/04/15 05:56:16;;;;;;;4.28;1.13;;;;;;;18.06;49.36;103234.19;6363732;22;20048;-77
2021/04/15 05:58:59;;;;;;;2.95;1.10;;;;;;;18.25;48.87;103239.91;6331820;22;20053;-76
2021/04/15 06:01:49;;;;;;;2.35;0.95;;;;;;;18.34;48.52;103231.44;6334341;22;20068;-77
2021/04/15 06:04:54;;;;;;;4.28;1.23;;;;;;;18.89;47.17;103233.66;6327814;22;20082;-86
2021/04/15 06:07:23;;;;;;;3.60;1.20;;;;;;;20.35;43.80;103233.09;6340720;22;20452;-83
2021/04/15 06:09:51;;;;;;;4.20;1.42;;;;;;;21.03;42.18;103235.06;6313346;22;20081;-85
2021/04/15 06:12:22;;;;;;;2.10;1.20;;;;;;;21.45;41.42;103233.00;6311340;22;20024;-80
2021/04/15 06:15:01;;;;;;;2.13;1.30;;;;;;;21.80;40.02;103222.94;6310872;22;20013;-80
2021/04/15 06:17:50;;;;;;;3.45;1.02;;;;;;;22.05;39.87;103226.69;6310212;22;20002;-83
2021/04/15 06:20:23;;;;;;;2.80;1.00;;;;;;;22.08;39.54;103231.06;6338701;22;20007;-81
2021/04/15 06:22:52;;;;;;;3.33;1.40;;;;;;;22.34;39.01;103224.38;6310152;22;20006;-88
2021/04/15 06:25:22;;;;;;;2.20;1.10;;;;;;;22.71;38.00;103231.59;6338634;22;19998;-81
2021/04/15 06:27:49;;;;;;;2.25;1.10;;;;;;;21.98;39.99;103240.59;6338268;22;19999;-85
2021/04/15 06:30:14;;;;;;;1.83;0.93;;;;;;;22.74;37.93;103231.66;6311490;22;20325;-85
2021/04/15 06:32:55;;;;;;;1.75;1.20;;;;;;;23.32;36.86;103244.25;6337548;22;20079;-87
2021/04/15 06:35:44;;;;;;;1.48;0.90;;;;;;;23.76;35.68;103228.66;6311339;22;20007;-90
2021/04/15 06:38:18;;;;;;;2.58;0.90;;;;;;;23.99;35.41;103231.31;6337991;22;20002;-87
2021/04/15 06:41:11;;;;;;;3.03;1.10;;;;;;;24.03;35.17;103235.72;6339074;22;20030;-84
2021/04/15 06:43:59;;;;;;;1.90;0.95;;;;;;;24.23;34.71;103242.75;6338424;22;20007;-85
2021/04/15 06:46:37;;;;;;;2.30;1.00;;;;;;;24.31;34.50;103242.75;6313119;22;20007;-91
2021/04/15 06:49:14;;;;;;;2.25;0.90;;;;;;;24.51;33.78;103250.69;6339940;22;20003;-89
2021/04/15 06:52:02;;;;;;;1.48;0.90;;;;;;;24.59;33.73;103251.56;6339249;22;20003;-89
2021/04/15 06:54:39;;;;;;;2.92;0.90;;;;;;;24.57;33.85;103248.03;6306204;22;20350;-89
2021/04/15 06:57:20;;;;;;;3.40;1.02;;;;;;;24.81;33.46;103253.25;6308670;22;20010;-83
2021/04/15 06:59:54;;;;;;;2.03;0.88;;;;;;;24.73;33.78;103259.41;6306715;22;20019;-90
2021/04/15 07:02:42;;;;;;;2.50;1.02;;;;;;;24.58;33.99;103255.03;6306923;22;20007;-88
2021/04/15 07:05:18;;;;;;;1.35;0.80;;;;;;;23.60;35.90;103254.00;6311161;22;20003;-84
2021/04/15 07:07:56;;;;;;;1.80;0.90;;;;;;;23.77;35.45;103253.19;6307354;22;20022;-89
2021/04/15 07:10:49;;;;;;;5.30;1.23;;;;;;;23.56;36.20;103259.22;6306700;22;20394;-89
2021/04/15 07:13:53;;;;;;;1.02;0.70;;;;;;;23.12;36.94;103265.16;6305452;22;20091;-86
2021/04/15 07:16:24;;;;;;;;;;;;;;;23.11;37.14;103268.66;6305701;22;19999;-90
2021/04/15 07:19:37;;;;;;;1.40;0.80;;;;;;;22.93;37.15;103266.75;6306762;22;19907;-91
2021/04/15 07:22:13;;;;;;;1.38;0.80;;;;;;;22.71;37.96;103270.97;6295592;22;20068;-89
2021/04/15 07:24:59;;;;;;;2.25;1.05;;;;;;;22.70;37.76;103269.25;6313482;22;19999;-90
2021/04/15 07:27:39;;;;;;;1.42;0.80;;;;;;;22.04;39.23;103264.25;6314183;22;20134;-90
2021/04/15 07:30:43;;;;;;;1.33;0.80;;;;;;;22.69;38.15;103267.47;6325712;22;20011;-86
2021/04/15 07:33:11;;;;;;;1.80;1.00;;;;;;;22.47;38.27;103267.31;6316405;22;20015;-91
2021/04/15 07:35:58;;;;;;;1.58;0.80;;;;;;;23.21;36.84;103270.47;6310034;22;20007;-90
2021/04/15 07:38:38;;;;;;;1.20;0.70;;;;;;;23.68;35.73;103269.78;6308024;22;20025;-86
2021/04/15 07:41:27;;;;;;;1.50;1.00;;;;;;;23.74;35.50;103263.69;6312412;22;20120;-87
2021/04/15 07:44:30;;;;;;;2.88;0.98;;;;;;;24.05;34.98;103267.28;6306044;22;20003;-92
2021/04/15 07:47:08;;;;;;;1.80;0.90;;;;;;;24.20;34.73;103263.81;6311833;22;20067;-91
2021/04/15 07:49:52;;;;;;;2.10;0.75;;;;;;;24.37;34.10;103269.94;6306069;22;20014;-89
2021/04/15 07:52:36;;;;;;;1.77;0.80;;;;;;;21.94;39.07;103276.38;6305556;22;20026;-88
2021/04/15 07:55:37;;;;;;;1.33;0.85;;;;;;;23.01;37.09;103283.47;6309834;22;20015;-88
2021/04/15 07:58:22;;;;;;;1.48;0.65;;;;;;;24.15;34.61;103278.69;6256093;22;20090;-87
2021/04/15 08:01:12;;;;;;;2.00;0.80;;;;;;;24.10;34.74;103278.69;6309571;22;20086;-89
2021/04/15 08:03:43;;;;;;;1.63;0.90;;;;;;;23.94;34.83;103283.03;6308885;22;20430;-91
2021/04/15 08:06:34;;;;;;;3.00;1.00;;;;;;;24.05;34.90;103277.81;6305896;22;20068;-91
2021/04/15 08:09:45;;;;;;;2.55;1.00;;;;;;;23.96;35.03;103276.03;6305584;22;20072;-89
2021/04/15 08:12:50;;;;;;;1.60;1.02;;;;;;;23.84;35.12;103281.25;6283724;22;20030;-86
2021/04/15 08:15:15;;;;;;;1.23;0.70;;;;;;;23.76;35.16;103283.88;6308261;22;20014;-82
2021/04/15 08:18:02;;;;;;;1.63;0.95;;;;;;;23.33;36.21;103291.53;6307575;22;20090;-81
2021/04/15 08:20:42;;;;;;;2.53;0.88;;;;;;;22.34;37.92;103287.31;6309054;22;19999;-78
2021/04/15 08:23:18;;;;;;;1.70;0.80;;;;;;;22.87;37.11;103287.75;6304551;22;20084;-87
2021/04/15 08:26:03;;;;;;;1.80;0.77;;;;;;;22.61;37.57;103298.06;6307089;22;19995;-86
2021/04/15 08:29:01;;;;;;;1.58;0.80;;;;;;;22.77;37.40;103286.78;6306393;22;20003;-85
2021/04/15 08:31:46;;;;;;;1.65;0.70;;;;;;;22.60;37.77;103299.75;6307988;22;19999;-86
2021/04/15 08:34:33;;;;;;;1.58;0.85;;;;;;;22.36;38.37;103303.06;6306058;22;20014;-83
2021/04/15 08:37:18;;;;;;;1.65;0.90;;;;;;;21.98;39.39;103298.28;6305398;22;20003;-87
2021/04/15 08:40:00;;;;;;;1.20;0.80;;;;;;;21.70;40.12;103311.06;6307102;22;20042;-92
2021/04/15 08:43:11;;;;;;;1.30;0.70;;;;;;;21.41;40.55;103307.16;6304725;22;20003;-84
2021/04/15 08:45:39;;;;;;;1.10;0.70;;;;;;;21.22;41.36;103311.25;6307167;22;20003;-87
2021/04/15 08:48:31;;;;;;;1.55;0.80;;;;;;;20.78;41.92;103317.56;6305726;22;20003;-92
2021/04/15 08:51:12;;;;;;;2.30;0.60;;;;;;;20.17;44.11;103316.47;6305001;22;20007;-90
2021/04/15 08:54:05;;;;;;;1.30;0.70;;;;;;;19.83;44.78;103319.28;6305077;22;20030;-89
2021/04/15 08:56:36;;;;;;;1.15;0.70;;;;;;;19.77;45.00;103315.66;6306324;22;19999;-85
2021/04/15 08:59:26;;;;;;;1.30;0.60;;;;;;;19.62;45.27;103318.78;6307843;22;19999;-83
2021/04/15 09:02:20;;;;;;;1.73;0.80;;;;;;;19.69;44.89;103323.31;6311494;22;20049;-90
2021/04/15 09:05:01;;;;;;;1.80;0.60;;;;;;;19.67;45.07;103317.19;6297856;22;20015;-87
2021/04/15 09:07:39;;;;;;;1.52;0.70;;;;;;;19.79;44.74;103325.28;6309536;22;20014;-87
2021/04/15 09:10:08;;;;;;;1.30;0.70;;;;;;;19.60;45.10;103324.00;6311964;22;20022;-84
2021/04/15 09:13:06;;;;;;;1.55;0.57;;;;;;;19.73;44.78;103314.72;6313223;22;20088;-89
2021/04/15 09:15:58;;;;;;;0.93;0.52;;;;;;;19.77;44.79;103324.38;6313446;22;20049;-88
2021/04/15 09:18:34;;;;;;;1.40;0.55;;;;;;;19.76;45.04;103322.63;6309363;22;20010;-87
2021/04/15 09:21:12;;;;;;;1.17;0.70;;;;;;;19.59;45.23;103331.78;6313922;22;20003;-85
2021/04/15 09:23:51;;;;;;;1.63;0.70;;;;;;;19.44;45.42;103333.22;6316007;22;19999;-80
2021/04/15 09:26:30;;;;;;;1.90;0.70;;;;;;;19.34;45.54;103331.25;6322639;22;20007;-78
2021/04/15 09:28:59;;;;;;;1.25;0.65;;;;;;;19.33;45.41;103334.69;6320977;22;20007;-80
2021/04/15 09:32:03;;;;;;;2.55;0.70;;;;;;;19.30;45.53;103330.31;6321327;22;20023;-83
2021/04/15 09:35:07;;;;;;;2.40;0.70;;;;;;;19.34;45.41;103328.66;6289204;22;20003;-78
2021/04/15 09:38:00;;;;;;;2.63;0.77;;;;;;;19.31;45.41;103334.69;6323750;22;20019;-81
2021/04/15 09:40:52;;;;;;;2.30;0.70;;;;;;;19.30;45.54;103337.25;6322535;22;20010;-78
2021/04/15 09:43:42;;;;;;;2.47;0.60;;;;;;;19.37;45.41;103333.06;6317930;22;20060;-80
2021/04/15 09:46:17;;;;;;;1.10;0.60;;;;;;;19.34;45.32;103333.88;6318345;22;20018;-78
2021/04/15 09:49:16;;;;;;;0.85;0.60;;;;;;;19.31;45.42;103331.19;6323504;22;20030;-81
2021/04/15 09:52:06;;;;;;;1.25;0.63;;;;;;;19.35;45.46;103333.00;6324949;22;20099;-86
2021/04/15 09:54:46;;;;;;;1.25;0.52;;;;;;;19.36;45.40;103321.75;6327478;22;19999;-85
2021/04/15 09:57:45;;;;;;;0.85;0.60;;;;;;;19.30;45.39;103334.66;6331898;22;20018;-85
2021/04/15 10:00:20;;;;;;;1.20;0.60;;;;;;;19.27;45.59;103334.56;6331572;22;20083;-84
2021/04/15 10:03:12;;;;;;;0.88;0.60;;;;;;;19.28;45.71;103329.38;6329579;22;20011;-78
2021/04/15 10:06:04;;;;;;;0.80;0.50;;;;;;;19.26;45.79;103320.63;6327427;22;20007;-79
2021/04/15 10:08:37;;;;;;;1.05;0.60;;;;;;;19.29;45.60;103331.16;6327153;22;19999;-80
2021/04/15 10:11:19;;;;;;;2.07;0.70;;;;;;;19.29;45.71;103325.03;6330480;22;20011;-79
2021/04/15 10:14:07;;;;;;;1.42;0.57;;;;;;;19.35;45.80;103332.13;6329564;22;20457;-79
2021/04/15 10:16:41;;;;;;;0.77;0.60;;;;;;;19.33;45.76;103329.47;6327526;22;20018;-80
2021/04/15 10:19:36;;;;;;;0.98;0.40;;;;;;;19.33;45.84;103334.69;6329177;22;20018;-79
2021/04/15 10:22:22;;;;;;;0.75;0.60;;;;;;;19.33;45.85;103340.78;6261106;22;20007;-79
2021/04/15 10:24:51;;;;;;;1.25;0.75;;;;;;;19.35;45.55;103334.75;6319351;22;19995;-79
2021/04/15 10:27:44;;;;;;;0.60;0.40;;;;;;;19.36;45.62;103332.19;6317015;22;20051;-81
2021/04/15 10:30:47;;;;;;;0.73;0.50;;;;;;;19.38;45.62;103333.09;6315765;22;20003;-78
2021/04/15 10:33:32;;;;;;;1.25;0.60;;;;;;;19.36;45.86;103328.66;6315113;22;20492;-80
2021/04/15 10:36:10;;;;;;;1.10;0.57;;;;;;;19.38;45.76;103330.50;6314864;22;20334;-79
2021/04/15 10:38:53;;;;;;;1.20;0.70;;;;;;;19.35;45.63;103333.00;6320843;22;20004;-78
2021/04/15 10:41:28;;;;;;;1.00;0.60;;;;;;;19.27;45.75;103322.41;6324276;22;20499;-80
2021/04/15 10:44:28;;;;;;;1.58;0.70;;;;;;;19.20;46.03;103330.94;6326401;22;20003;-79
2021/04/15 10:47:18;;;;;;;0.93;0.57;;;;;;;19.21;46.10;103330.09;6329366;22;20033;-78
2021/04/15 10:49:47;;;;;;;1.40;0.73;;;;;;;19.25;46.00;103331.03;6332743;22;20023;-79
2021/04/15 10:52:28;;;;;;;0.63;0.40;;;;;;;19.24;46.01;103331.88;6356305;22;20011;-77
2021/04/15 10:55:25;;;;;;;0.68;0.57;;;;;;;19.21;45.82;103321.38;6356079;22;20003;-82
2021/04/15 10:57:52;;;;;;;0.93;0.60;;;;;;;19.23;45.97;103336.22;6357056;22;20019;-80
2021/04/15 11:00:30;;;;;;;1.38;0.60;;;;;;;19.23;46.01;103328.41;6359250;22;20026;-80
2021/04/15 11:03:08;;;;;;;1.23;0.50;;;;;;;19.22;46.04;103330.97;6359641;22;20010;-84
2021/04/15 11:05:42;;;;;;;0.65;0.40;;;;;;;19.19;46.18;103316.13;6358843;22;20089;-83
2021/04/15 11:08:19;;;;;;;0.65;0.50;;;;;;;19.18;45.80;103316.94;6357415;22;19999;-77
2021/04/15 11:10:46;;;;;;;1.27;0.60;;;;;;;19.13;46.07;103317.72;6356883;22;19998;-77
2021/04/15 11:13:17;;;;;;;0.82;0.50;;;;;;;19.10;46.19;103322.00;6356276;22;19999;-76
2021/04/15 11:15:54;;;;;;;0.85;0.50;;;;;;;19.11;46.02;103320.28;6357183;22;20036;-77
2021/04/15 11:18:33;;;;;;;1.40;0.65;;;;;;;19.09;46.01;103322.84;6329951;22;19999;-77
2021/04/15 11:23:29;;;;;;;1.60;0.63;;;;;;;18.98;46.43;103313.88;6388663;22;20026;-81
2021/04/15 11:26:20;;;;;;;1.13;0.63;;;;;;;18.98;46.49;103313.00;6336319;22;20013;-77
2021/04/15 11:28:48;;;;;;;1.10;0.57;;;;;;;18.99;46.44;103315.66;6360157;22;20058;-77
2021/04/15 11:31:13;;;;;;;1.23;0.68;;;;;;;19.02;46.23;103313.13;6353723;22;20075;-77
2021/04/15 11:33:49;;;;;;;1.10;0.70;;;;;;;19.04;46.10;103314.03;6359570;22;20015;-77
2021/04/15 11:36:29;;;;;;;1.25;0.68;;;;;;;19.05;46.17;103307.06;6361514;22;20417;-77
2021/04/15 11:39:04;;;;;;;0.57;0.40;;;;;;;19.01;46.20;103307.84;6360800;22;20002;-77
2021/04/15 11:41:34;;;;;;;1.45;0.65;;;;;;;18.94;46.40;103296.38;6363496;22;20002;-76
2021/04/15 11:44:15;;;;;;;1.00;0.60;;;;;;;18.97;46.17;103287.78;6366336;22;20009;-80
2021/04/15 11:46:54;;;;;;;1.13;0.50;;;;;;;19.02;46.30;103302.66;6365218;22;19998;-77
2021/04/15 11:49:22;;;;;;;1.20;0.63;;;;;;;19.06;46.36;103296.69;6390226;22;20050;-77
2021/04/15 11:52:21;;;;;;;1.40;0.55;;;;;;;19.09;46.24;103293.25;6389666;22;20047;-77
2021/04/15 11:55:14;;;;;;;1.40;0.80;;;;;;;19.07;46.31;103293.22;6389691;22;20022;-77
2021/04/15 11:57:43;;;;;;;0.70;0.60;;;;;;;19.06;46.31;103293.19;6390516;22;19998;-77
2021/04/15 12:00:19;;;;;;;2.58;0.60;;;;;;;19.11;46.18;103286.34;6362933;22;20282;-77
2021/04/15 12:02:49;;;;;;;0.73;0.40;;;;;;;19.11;46.01;103281.13;6389665;22;20037;-77
2021/04/15 12:05:40;;;;;;;3.70;0.60;;;;;;;19.09;46.28;103275.88;6390648;22;20002;-77
2021/04/15 12:08:12;;;;;;;1.52;0.77;;;;;;;19.05;46.44;103280.97;6389239;22;20519;-77
2021/04/15 12:13:29;;;;;;;2.55;0.55;;;;;;;18.96;46.49;103278.16;6357067;22;20037;-77
2021/04/15 12:16:16;;;;;;;1.75;0.77;;;;;;;18.94;46.63;103275.50;6359026;22;20011;-77
2021/04/15 12:19:14;;;;;;;1.10;0.57;;;;;;;18.93;46.52;103283.31;6356814;22;20074;-77
2021/04/15 12:22:04;;;;;;;0.55;0.50;;;;;;;18.91;46.55;103284.16;6360999;22;19983;-78
2021/04/15 12:24:46;;;;;;;1.23;0.60;;;;;;;18.90;46.61;103282.41;6361618;22;20023;-78
2021/04/15 12:27:22;;;;;;;1.40;0.70;;;;;;;18.97;46.48;103277.34;6351807;22;20007;-77
2021/04/15 12:29:56;;;;;;;0.98;0.60;;;;;;;18.99;46.26;103281.75;6360597;22;20009;-77